Excalibur — FAD3440 — position and weather

sailwx.info

Track history (hours):
 
Tides and Currents Weather Stations Pressure Air Temp Water Temp Dewpoint Dewpoint Depression Visibility Wind Speed Wind Dir Waves Ship Positions

Excalibur

Last reported at 2018-Jun-17 08:48 UTC. Time now 2018-Jun-22 01:54 UTC.
Position N 47°47' W 003°43'.

Length 11 m.

Type: Sailing vessel. MMSI: 227383920.

Date/timePositionNaut miles runAvg speedWind from/ knotsBaromVisibWave heightAir tempDewpointWater temp
2018-Jun-17 08:48N 47°47' W 003°43'2 6.3
2018-Jun-17 08:30N 47°46' W 003°41'3 6.4
2018-Jun-17 08:00N 47°44' W 003°37'3 5.3
2018-Jun-17 07:30N 47°43' W 003°34'3 5.3
2018-Jun-17 07:00N 47°41' W 003°31'2 3.8
2018-Jun-17 06:30N 47°40' W 003°29'1 2.0
2018-Jun-17 06:00N 47°39' W 003°28'1 0.0
2018-Jun-16 15:41N 47°39' W 003°27'0 0.0
2018-Jun-16 15:29N 47°39' W 003°27'2 3.5
2018-Jun-16 15:00N 47°39' W 003°29'4 6.8
2018-Jun-16 14:23N 47°40' W 003°35'  
2018-Jun-10 14:59N 47°39' W 003°27'0 0.4
2018-Jun-10 14:00N 47°39' W 003°27'2 4.0
2018-Jun-10 13:30N 47°40' W 003°30'3 5.4
2018-Jun-10 13:00N 47°41' W 003°33'2 4.0
2018-Jun-10 12:30N 47°42' W 003°36'2 4.5
2018-Jun-10 11:59N 47°44' W 003°38'  
Track history (hours):
 
Tides and Currents Weather Stations Pressure Air Temp Water Temp Dewpoint Dewpoint Depression Visibility Wind Speed Wind Dir Waves Ship Positions

Excalibur

Last reported at 2018-Jun-17 08:48 UTC. Time now 2018-Jun-22 01:54 UTC.
Position N 47°47' W 003°43'.

Length 11 m.

Type: Sailing vessel. MMSI: 227383920.

Date/timePositionNaut miles runAvg speedWind from/ knotsBaromVisibWave heightAir tempDewpointWater temp
2018-Jun-17 08:48N 47°47' W 003°43'2 6.3
2018-Jun-17 08:30N 47°46' W 003°41'3 6.4
2018-Jun-17 08:00N 47°44' W 003°37'3 5.3
2018-Jun-17 07:30N 47°43' W 003°34'3 5.3
2018-Jun-17 07:00N 47°41' W 003°31'2 3.8
2018-Jun-17 06:30N 47°40' W 003°29'1 2.0
2018-Jun-17 06:00N 47°39' W 003°28'1 0.0
2018-Jun-16 15:41N 47°39' W 003°27'0 0.0
2018-Jun-16 15:29N 47°39' W 003°27'2 3.5
2018-Jun-16 15:00N 47°39' W 003°29'4 6.8
2018-Jun-16 14:23N 47°40' W 003°35'  
2018-Jun-10 14:59N 47°39' W 003°27'0 0.4
2018-Jun-10 14:00N 47°39' W 003°27'2 4.0
2018-Jun-10 13:30N 47°40' W 003°30'3 5.4
2018-Jun-10 13:00N 47°41' W 003°33'2 4.0
2018-Jun-10 12:30N 47°42' W 003°36'2 4.5
2018-Jun-10 11:59N 47°44' W 003°38'  

Dump ship's entire track history